createdAt,value
2023-03-19T00:01:31.188Z,7.90
2023-03-19T00:03:57.573Z,6.70
2023-03-19T00:06:25.375Z,6.55
2023-03-19T00:08:52.031Z,5.85
2023-03-19T00:11:18.438Z,5.28
2023-03-19T00:13:44.815Z,5.05
2023-03-19T00:16:11.472Z,4.60
2023-03-19T00:18:38.041Z,4.30
2023-03-19T00:21:04.806Z,4.20
2023-03-19T00:23:31.318Z,4.15
2023-03-19T00:25:57.710Z,4.03
2023-03-19T00:28:24.090Z,4.00
2023-03-19T00:30:50.519Z,4.28
2023-03-19T00:33:17.000Z,3.90
2023-03-19T00:35:43.503Z,4.50
2023-03-19T00:38:09.940Z,4.38
2023-03-19T00:40:37.138Z,4.10
2023-03-19T00:43:03.535Z,4.25
2023-03-19T00:45:30.716Z,4.40
2023-03-19T00:47:57.607Z,4.20
2023-03-19T00:50:25.525Z,3.97
2023-03-19T00:52:52.311Z,3.85
2023-03-19T00:55:18.827Z,4.07
2023-03-19T00:57:45.978Z,4.25
2023-03-19T01:00:12.670Z,3.90
2023-03-19T01:02:39.033Z,3.70
2023-03-19T01:05:06.193Z,4.25
2023-03-19T01:07:32.963Z,4.40
2023-03-19T01:09:59.594Z,4.18
2023-03-19T01:12:26.248Z,4.07
2023-03-19T01:14:52.830Z,4.00
2023-03-19T01:17:19.238Z,3.60
2023-03-19T01:19:45.949Z,4.25
2023-03-19T01:22:12.948Z,3.80
2023-03-19T01:24:39.327Z,4.00
2023-03-19T01:27:05.992Z,3.90
2023-03-19T01:29:32.414Z,3.85
2023-03-19T01:31:58.778Z,3.40
2023-03-19T01:34:25.169Z,3.85
2023-03-19T01:36:52.444Z,3.83
2023-03-19T01:39:19.114Z,3.95
2023-03-19T01:41:45.580Z,3.88
2023-03-19T01:44:26.560Z,3.88
2023-03-19T01:46:52.938Z,4.70
2023-03-19T01:49:20.604Z,4.13
2023-03-19T01:51:47.546Z,4.63
2023-03-19T01:54:16.075Z,4.32
2023-03-19T01:56:43.966Z,4.20
2023-03-19T01:59:23.405Z,4.03
2023-03-19T02:01:55.157Z,4.32
2023-03-19T02:04:22.985Z,3.45
2023-03-19T02:06:49.512Z,3.80
2023-03-19T02:09:18.305Z,3.63
2023-03-19T02:11:45.397Z,3.60
2023-03-19T02:14:13.185Z,3.35
2023-03-19T02:16:39.560Z,3.80
2023-03-19T02:19:09.950Z,3.50
2023-03-19T02:21:36.376Z,3.88
2023-03-19T02:24:13.392Z,3.60
2023-03-19T02:26:41.292Z,3.55
2023-03-19T02:29:07.869Z,3.55
2023-03-19T02:31:34.331Z,3.50
2023-03-19T02:34:06.522Z,3.15
2023-03-19T02:36:37.477Z,3.15
2023-03-19T02:39:06.194Z,3.55
2023-03-19T02:41:33.103Z,3.72
2023-03-19T02:44:02.343Z,4.10
2023-03-19T02:46:28.986Z,4.30
2023-03-19T02:48:55.413Z,3.85
2023-03-19T02:51:21.876Z,4.03
2023-03-19T02:53:48.288Z,3.70
2023-03-19T02:56:14.652Z,3.70
2023-03-19T02:58:41.129Z,3.40
2023-03-19T03:01:07.971Z,3.58
2023-03-19T03:03:34.437Z,3.55
2023-03-19T03:06:00.980Z,3.53
2023-03-19T03:08:28.239Z,3.78
2023-03-19T03:10:54.603Z,3.78
2023-03-19T03:13:21.987Z,3.58
2023-03-19T03:15:48.370Z,3.50
2023-03-19T03:18:14.850Z,3.83
2023-03-19T03:20:41.725Z,3.88
2023-03-19T03:23:08.140Z,5.07
2023-03-19T03:25:35.851Z,6.05
2023-03-19T03:28:02.386Z,5.10
2023-03-19T03:30:29.185Z,4.72
2023-03-19T03:32:55.620Z,3.92
2023-03-19T03:35:22.714Z,4.80
2023-03-19T03:37:50.509Z,4.05
2023-03-19T03:40:17.112Z,4.07
2023-03-19T03:42:44.053Z,3.92
2023-03-19T03:45:12.080Z,4.10
2023-03-19T03:47:39.532Z,4.07
2023-03-19T03:50:07.103Z,3.85
2023-03-19T03:52:34.127Z,4.30
2023-03-19T03:55:01.250Z,4.45
2023-03-19T03:57:27.675Z,4.18
2023-03-19T03:59:54.611Z,4.13
2023-03-19T04:02:21.579Z,4.10
2023-03-19T04:04:48.652Z,4.13
2023-03-19T04:07:15.058Z,4.32
2023-03-19T04:09:42.061Z,4.07
2023-03-19T04:12:08.637Z,4.10
2023-03-19T04:14:35.074Z,3.78
2023-03-19T04:17:01.473Z,3.60
2023-03-19T04:19:28.082Z,3.63
2023-03-19T04:21:54.544Z,3.30
2023-03-19T04:24:20.928Z,3.65
2023-03-19T04:26:48.543Z,2.90
2023-03-19T04:29:15.603Z,3.22
2023-03-19T04:31:42.067Z,3.03
2023-03-19T04:34:08.426Z,3.42
2023-03-19T04:36:34.961Z,3.00
2023-03-19T04:39:01.832Z,3.17
2023-03-19T04:41:28.203Z,3.08
2023-03-19T04:43:54.574Z,5.00
2023-03-19T04:46:20.997Z,5.85
2023-03-19T04:48:47.487Z,5.55
2023-03-19T04:51:13.853Z,5.70
2023-03-19T04:53:40.333Z,5.32
2023-03-19T04:56:07.991Z,5.72
2023-03-19T04:58:34.576Z,5.75
2023-03-19T05:01:01.098Z,4.70
2023-03-19T05:03:27.614Z,4.10
2023-03-19T05:05:55.109Z,4.00
2023-03-19T05:08:21.555Z,3.88
2023-03-19T05:10:47.920Z,4.15
2023-03-19T05:13:14.358Z,5.13
2023-03-19T05:15:44.610Z,6.20
2023-03-19T05:18:11.585Z,7.88
2023-03-19T05:20:38.577Z,8.45
2023-03-19T05:23:05.177Z,8.43
2023-03-19T05:25:31.665Z,7.95
2023-03-19T05:27:58.019Z,7.55
2023-03-19T05:30:24.452Z,5.43
2023-03-19T05:32:50.934Z,5.07
2023-03-19T05:35:17.436Z,4.28
2023-03-19T05:37:43.798Z,4.57
2023-03-19T05:40:10.860Z,4.05
2023-03-19T05:42:37.869Z,4.25
2023-03-19T05:45:05.642Z,3.90
2023-03-19T05:47:32.037Z,4.22
2023-03-19T05:49:58.431Z,3.72
2023-03-19T05:52:24.825Z,5.40
2023-03-19T05:54:51.366Z,4.65
2023-03-19T05:57:17.785Z,4.60
2023-03-19T05:59:44.387Z,4.03
2023-03-19T06:02:10.965Z,4.45
2023-03-19T06:04:37.361Z,4.30
2023-03-19T06:07:04.774Z,4.38
2023-03-19T06:09:31.190Z,5.32
2023-03-19T06:11:57.594Z,5.90
2023-03-19T06:14:24.296Z,5.35
2023-03-19T06:16:50.837Z,5.05
2023-03-19T06:19:17.284Z,4.80
2023-03-19T06:21:43.741Z,4.75
2023-03-19T06:24:10.144Z,5.57
2023-03-19T06:26:37.349Z,5.20
2023-03-19T06:29:04.137Z,5.22
2023-03-19T06:31:30.924Z,4.70
2023-03-19T06:33:57.462Z,5.45
2023-03-19T06:36:23.841Z,5.10
2023-03-19T06:38:51.363Z,5.20
2023-03-19T06:41:17.863Z,4.85
2023-03-19T06:43:44.275Z,4.80
2023-03-19T06:46:11.642Z,5.22
2023-03-19T06:48:38.378Z,4.90
2023-03-19T06:51:05.556Z,4.65
2023-03-19T06:53:32.009Z,4.40
2023-03-19T06:55:58.406Z,4.25
2023-03-19T06:58:24.807Z,4.40
2023-03-19T07:00:51.601Z,4.43
2023-03-19T07:03:18.004Z,4.20
2023-03-19T07:05:44.403Z,4.30
2023-03-19T07:08:12.285Z,3.78
2023-03-19T07:10:39.422Z,3.97
2023-03-19T07:13:06.258Z,4.40
2023-03-19T07:15:32.844Z,4.53
2023-03-19T07:17:59.483Z,5.30
2023-03-19T07:20:25.909Z,5.43
2023-03-19T07:22:52.307Z,4.97
2023-03-19T07:25:18.758Z,4.93
2023-03-19T07:27:45.743Z,4.43
2023-03-19T07:30:13.315Z,3.10
2023-03-19T07:32:39.838Z,2.72
2023-03-19T07:35:07.514Z,2.50
2023-03-19T07:37:34.083Z,2.97
2023-03-19T07:40:00.555Z,2.60
2023-03-19T07:42:27.005Z,2.65
2023-03-19T07:44:53.374Z,2.53
2023-03-19T07:47:28.630Z,2.67
2023-03-19T07:49:59.605Z,2.20
2023-03-19T07:52:26.151Z,2.80
2023-03-19T07:54:52.990Z,2.55
2023-03-19T07:57:19.545Z,2.13
2023-03-19T07:59:46.491Z,2.47
2023-03-19T08:02:13.430Z,2.63
2023-03-19T08:04:40.541Z,2.20
2023-03-19T08:07:07.012Z,2.85
2023-03-19T08:09:34.006Z,2.78
2023-03-19T08:12:00.371Z,2.30
2023-03-19T08:14:26.835Z,2.65
2023-03-19T08:16:53.240Z,2.58
2023-03-19T08:19:19.655Z,2.50
2023-03-19T08:21:46.542Z,2.88
2023-03-19T08:24:12.929Z,2.58
2023-03-19T08:26:39.362Z,2.60
2023-03-19T08:29:06.984Z,2.80
2023-03-19T08:31:33.365Z,3.17
2023-03-19T08:34:04.634Z,4.68
2023-03-19T08:36:31.487Z,3.80
2023-03-19T08:38:58.744Z,4.28
2023-03-19T08:41:25.291Z,4.13
2023-03-19T08:43:51.683Z,4.40
2023-03-19T08:46:18.290Z,3.95
2023-03-19T08:48:45.135Z,4.32
2023-03-19T08:51:11.582Z,3.50
2023-03-19T08:53:38.701Z,3.60
2023-03-19T08:56:07.541Z,3.85
2023-03-19T08:58:33.982Z,3.53
2023-03-19T09:01:05.862Z,3.70
2023-03-19T09:03:32.258Z,3.83
2023-03-19T09:06:00.812Z,3.85
2023-03-19T09:08:28.338Z,3.75
2023-03-19T09:10:58.631Z,3.20
2023-03-19T09:13:25.599Z,3.72
2023-03-19T09:15:52.189Z,3.70
2023-03-19T09:18:20.469Z,3.90
2023-03-19T09:20:47.617Z,3.20
2023-03-19T09:23:14.028Z,3.58
2023-03-19T09:25:40.724Z,2.95
2023-03-19T09:28:07.269Z,3.40
2023-03-19T09:30:33.654Z,3.40
2023-03-19T09:33:00.370Z,3.28
2023-03-19T09:35:31.053Z,3.03
2023-03-19T09:37:58.441Z,3.10
2023-03-19T09:40:31.408Z,3.17
2023-03-19T09:43:20.983Z,3.03
2023-03-19T09:45:47.591Z,2.83
2023-03-19T09:48:32.969Z,3.08
2023-03-19T09:51:01.195Z,3.05
2023-03-19T09:53:38.775Z,3.20
2023-03-19T09:56:07.586Z,3.63
2023-03-19T09:58:35.535Z,3.92
2023-03-19T10:01:02.735Z,3.35
2023-03-19T10:04:03.390Z,4.63
2023-03-19T10:06:34.103Z,4.72
2023-03-19T10:09:12.099Z,4.25
2023-03-19T10:12:03.531Z,3.95
2023-03-19T10:14:40.575Z,3.28
2023-03-19T10:17:10.254Z,3.53
2023-03-19T10:19:51.778Z,3.90
2023-03-19T10:22:24.381Z,4.13
2023-03-19T10:24:52.702Z,4.32
2023-03-19T10:27:21.636Z,4.20
2023-03-19T10:29:48.106Z,4.40
2023-03-19T10:32:18.220Z,4.80
2023-03-19T10:34:50.225Z,4.63
2023-03-19T10:37:22.246Z,4.68
2023-03-19T10:39:51.160Z,5.35
2023-03-19T10:42:39.386Z,5.18
2023-03-19T10:45:38.469Z,5.20
2023-03-19T10:48:06.014Z,4.82
2023-03-19T10:50:35.310Z,4.80
2023-03-19T10:53:19.549Z,4.82
2023-03-19T10:55:55.278Z,4.97
2023-03-19T10:58:27.229Z,5.55
2023-03-19T11:01:18.102Z,5.27
2023-03-19T11:03:52.931Z,5.07
2023-03-19T11:06:26.613Z,5.15
2023-03-19T11:08:58.146Z,4.63
2023-03-19T11:11:45.792Z,5.37
2023-03-19T11:14:18.108Z,5.20
2023-03-19T11:19:28.069Z,4.10
2023-03-19T11:22:19.652Z,4.07
2023-03-19T11:27:20.041Z,3.95
2023-03-19T11:29:46.574Z,3.95
2023-03-19T11:32:51.487Z,3.53
2023-03-19T11:35:22.328Z,3.53
2023-03-19T11:37:57.497Z,3.55
2023-03-19T11:40:45.494Z,3.78
2023-03-19T11:43:38.151Z,3.28
2023-03-19T11:46:19.730Z,3.60
2023-03-19T11:49:10.715Z,3.15
2023-03-19T11:52:28.490Z,3.00
2023-03-19T11:55:06.014Z,3.00
2023-03-19T11:58:00.398Z,2.78
2023-03-19T12:00:39.319Z,3.13
2023-03-19T12:03:37.892Z,3.33
2023-03-19T12:06:34.369Z,3.50
2023-03-19T12:09:08.808Z,3.90
2023-03-19T12:11:54.632Z,3.83
2023-03-19T12:14:36.189Z,3.80
2023-03-19T12:17:07.167Z,4.93
2023-03-19T12:19:56.109Z,4.30
2023-03-19T12:22:40.939Z,3.92
2023-03-19T12:25:23.670Z,4.82
2023-03-19T12:28:04.016Z,4.82
2023-03-19T12:30:35.553Z,4.30
2023-03-19T12:33:16.697Z,4.03
2023-03-19T12:35:46.686Z,4.50
2023-03-19T12:38:21.539Z,4.97
2023-03-19T12:41:03.598Z,4.55
2023-03-19T12:44:06.400Z,4.10
2023-03-19T12:46:38.220Z,5.35
2023-03-19T12:49:21.455Z,4.80
2023-03-19T12:51:52.037Z,3.83
2023-03-19T12:54:20.197Z,4.65
2023-03-19T12:56:55.588Z,4.72
2023-03-19T12:59:29.776Z,4.70
2023-03-19T13:02:20.387Z,4.63
2023-03-19T13:04:53.279Z,4.30
2023-03-19T13:07:40.448Z,4.97
2023-03-19T13:10:12.572Z,4.85
2023-03-19T13:12:39.097Z,4.75
2023-03-19T13:15:12.967Z,5.22
2023-03-19T13:18:01.218Z,5.30
2023-03-19T13:20:30.815Z,4.90
2023-03-19T13:23:01.252Z,5.18
2023-03-19T13:25:32.320Z,4.80
2023-03-19T13:27:58.980Z,5.50
2023-03-19T13:30:26.353Z,5.35
2023-03-19T13:33:03.895Z,4.50
2023-03-19T13:35:49.787Z,6.70
2023-03-19T13:38:20.507Z,7.05
2023-03-19T13:40:51.960Z,6.32
2023-03-19T13:43:28.342Z,6.87
2023-03-19T13:46:13.266Z,6.40
2023-03-19T13:48:45.906Z,6.18
2023-03-19T13:51:12.157Z,5.88
2023-03-19T13:53:52.874Z,5.35
2023-03-19T13:56:29.419Z,6.18
2023-03-19T13:59:23.728Z,5.38
2023-03-19T14:01:50.501Z,5.90
2023-03-19T14:04:33.489Z,5.63
2023-03-19T14:07:17.824Z,5.70
2023-03-19T14:10:02.672Z,5.53
2023-03-19T14:12:35.388Z,5.95
2023-03-19T14:15:07.956Z,6.45
2023-03-19T14:17:41.953Z,6.30
2023-03-19T14:20:12.578Z,5.88
2023-03-19T14:22:41.007Z,7.43
2023-03-19T14:25:17.973Z,6.93
2023-03-19T14:27:51.822Z,7.50
2023-03-19T14:30:18.160Z,7.20
2023-03-19T14:32:47.976Z,7.65
2023-03-19T14:35:17.261Z,8.73
2023-03-19T14:37:49.475Z,8.70
2023-03-19T14:40:17.922Z,8.30
2023-03-19T14:43:05.130Z,7.93
2023-03-19T14:45:43.779Z,7.63
2023-03-19T14:48:47.550Z,6.68
2023-03-19T14:51:26.676Z,6.68
2023-03-19T14:53:56.215Z,7.65
2023-03-19T14:56:31.465Z,6.82
2023-03-19T14:59:00.774Z,6.75
2023-03-19T15:01:27.462Z,6.85
2023-03-19T15:04:15.855Z,7.35
2023-03-19T15:06:58.315Z,6.47
2023-03-19T15:09:31.088Z,6.90
2023-03-19T15:12:06.513Z,6.50
2023-03-19T15:14:48.994Z,6.90
2023-03-19T15:17:22.536Z,7.05
2023-03-19T15:19:49.359Z,6.60
2023-03-19T15:22:20.512Z,7.15
2023-03-19T15:24:47.695Z,7.70
2023-03-19T15:27:23.937Z,8.13
2023-03-19T15:29:51.940Z,7.90
2023-03-19T15:35:25.865Z,8.05
2023-03-19T15:37:55.886Z,7.30
2023-03-19T15:40:23.245Z,7.45
2023-03-19T15:42:51.241Z,6.75
2023-03-19T15:45:23.218Z,7.50
2023-03-19T15:48:17.101Z,6.97
2023-03-19T15:50:45.365Z,6.13
2023-03-19T15:53:18.842Z,5.32
2023-03-19T15:55:48.332Z,5.22
2023-03-19T15:58:25.732Z,5.70
2023-03-19T16:00:53.955Z,5.93
2023-03-19T16:03:25.643Z,5.70
2023-03-19T16:06:03.364Z,6.55
2023-03-19T16:08:31.654Z,7.70
2023-03-19T16:11:15.581Z,8.65
2023-03-19T16:13:52.705Z,5.07
2023-03-19T16:16:23.744Z,10.27
2023-03-19T16:18:55.555Z,12.10
2023-03-19T16:21:27.677Z,7.00
2023-03-19T16:24:21.027Z,6.18
2023-03-19T16:26:48.059Z,6.70
2023-03-19T16:29:24.544Z,6.78
2023-03-19T16:31:53.293Z,7.03
2023-03-19T16:34:24.872Z,7.90
2023-03-19T16:36:51.261Z,7.10
2023-03-19T16:39:35.097Z,7.20
2023-03-19T16:42:26.516Z,6.72
2023-03-19T16:44:53.128Z,7.15
2023-03-19T16:47:19.558Z,7.55
2023-03-19T16:49:47.823Z,7.20
2023-03-19T16:52:17.765Z,7.45
2023-03-19T16:54:44.541Z,7.32
2023-03-19T16:57:15.415Z,8.07
2023-03-19T16:59:42.062Z,7.35
2023-03-19T17:02:16.690Z,7.10
2023-03-19T17:04:43.336Z,7.93
2023-03-19T17:07:09.945Z,8.18
2023-03-19T17:09:36.654Z,8.48
2023-03-19T17:12:04.072Z,7.97
2023-03-19T17:14:31.193Z,8.20
2023-03-19T17:16:58.208Z,8.20
2023-03-19T17:19:33.655Z,8.43
2023-03-19T17:22:00.190Z,8.27
2023-03-19T17:24:29.184Z,8.40
2023-03-19T17:26:58.210Z,9.35
2023-03-19T17:29:25.256Z,9.02
2023-03-19T17:31:53.174Z,9.55
2023-03-19T17:34:27.077Z,9.70
2023-03-19T17:36:59.231Z,9.88
2023-03-19T17:39:26.418Z,9.65
2023-03-19T17:41:53.908Z,9.90
2023-03-19T17:44:20.812Z,9.68
2023-03-19T17:46:49.850Z,9.20
2023-03-19T17:49:22.708Z,10.10
2023-03-19T17:51:49.167Z,9.18
2023-03-19T17:54:15.602Z,9.52
2023-03-19T17:56:43.329Z,10.45
2023-03-19T17:59:10.780Z,10.25
2023-03-19T18:01:38.224Z,10.63
2023-03-19T18:04:04.660Z,10.32
2023-03-19T18:06:34.141Z,11.13
2023-03-19T18:09:00.800Z,10.80
2023-03-19T18:11:27.247Z,11.60
2023-03-19T18:13:53.678Z,10.93
2023-03-19T18:16:28.873Z,10.90
2023-03-19T18:18:58.065Z,10.85
2023-03-19T18:21:24.616Z,10.15
2023-03-19T18:23:50.994Z,10.18
2023-03-19T18:26:18.698Z,10.90
2023-03-19T18:28:45.279Z,10.55
2023-03-19T18:31:15.906Z,11.75
2023-03-19T18:33:45.324Z,10.55
2023-03-19T18:36:13.911Z,11.10
2023-03-19T18:38:40.661Z,10.90
2023-03-19T18:41:07.018Z,10.55
2023-03-19T18:43:33.400Z,10.68
2023-03-19T18:46:00.555Z,10.55
2023-03-19T18:48:28.396Z,10.75
2023-03-19T18:50:55.690Z,10.95
2023-03-19T18:53:22.656Z,11.05
2023-03-19T18:55:49.257Z,11.35
2023-03-19T18:58:20.310Z,11.50
2023-03-19T19:00:47.045Z,10.90
2023-03-19T19:03:15.420Z,11.05
2023-03-19T19:05:42.295Z,11.90
2023-03-19T19:08:15.292Z,11.15
2023-03-19T19:10:44.502Z,11.55
2023-03-19T19:13:15.924Z,11.88
2023-03-19T19:15:42.304Z,12.02
2023-03-19T19:18:20.739Z,11.80
2023-03-19T19:20:48.435Z,12.50
2023-03-19T19:23:15.655Z,12.18
2023-03-19T19:25:44.403Z,12.15
2023-03-19T19:28:39.978Z,10.95
2023-03-19T19:31:19.510Z,12.02
2023-03-19T19:33:45.897Z,11.85
2023-03-19T19:36:12.361Z,12.98
2023-03-19T19:38:38.796Z,11.63
2023-03-19T19:41:10.552Z,13.20
2023-03-19T19:43:37.048Z,12.52
2023-03-19T19:46:03.936Z,13.27
2023-03-19T19:48:32.843Z,12.88
2023-03-19T19:50:59.205Z,13.95
2023-03-19T19:53:26.163Z,13.57
2023-03-19T19:55:52.818Z,13.93
2023-03-19T19:58:22.268Z,14.70
2023-03-19T20:01:02.321Z,14.80
2023-03-19T20:03:32.169Z,13.18
2023-03-19T20:05:59.619Z,15.48
2023-03-19T20:08:26.977Z,15.90
2023-03-19T20:10:53.575Z,15.75
2023-03-19T20:13:25.911Z,14.95
2023-03-19T20:15:54.900Z,14.82
2023-03-19T20:18:22.400Z,15.77
2023-03-19T20:20:49.821Z,15.25
2023-03-19T20:23:16.633Z,15.73
2023-03-19T20:25:44.687Z,15.70
2023-03-19T20:28:20.545Z,15.55
2023-03-19T20:30:47.295Z,15.25
2023-03-19T20:33:13.728Z,15.50
2023-03-19T20:35:40.385Z,16.30
2023-03-19T20:38:06.760Z,16.40
2023-03-19T20:40:36.801Z,16.40
2023-03-19T20:43:03.587Z,17.48
2023-03-19T20:45:37.735Z,17.90
2023-03-19T20:48:05.032Z,18.25
2023-03-19T20:50:32.778Z,18.13
2023-03-19T20:53:03.419Z,18.58
2023-03-19T20:55:31.677Z,18.70
2023-03-19T20:57:58.452Z,17.83
2023-03-19T21:00:32.819Z,18.08
2023-03-19T21:03:01.159Z,17.90
2023-03-19T21:05:36.462Z,17.50
2023-03-19T21:08:05.592Z,17.05
2023-03-19T21:10:34.900Z,18.40
2023-03-19T21:13:01.901Z,18.27
2023-03-19T21:15:28.831Z,17.38
2023-03-19T21:17:57.277Z,17.55
2023-03-19T21:20:28.867Z,17.65
2023-03-19T21:22:58.916Z,18.10
2023-03-19T21:25:28.258Z,19.40
2023-03-19T21:27:57.136Z,20.30
2023-03-19T21:30:23.597Z,20.55
2023-03-19T21:32:50.144Z,21.15
2023-03-19T21:35:19.371Z,22.77
2023-03-19T21:37:46.397Z,21.13
2023-03-19T21:40:22.906Z,22.83
2023-03-19T21:42:51.862Z,24.25
2023-03-19T21:45:27.610Z,24.67
2023-03-19T21:48:13.222Z,24.42
2023-03-19T21:50:39.962Z,25.52
2023-03-19T21:53:06.689Z,24.90
2023-03-19T21:55:33.202Z,23.70
2023-03-19T21:57:59.686Z,22.70
2023-03-19T22:00:26.526Z,21.98
2023-03-19T22:02:52.980Z,22.88
2023-03-19T22:05:27.777Z,23.15
2023-03-19T22:07:54.616Z,21.25
2023-03-19T22:10:23.925Z,22.77
2023-03-19T22:12:50.890Z,23.10
2023-03-19T22:15:25.200Z,23.48
2023-03-19T22:17:51.603Z,24.42
2023-03-19T22:20:21.913Z,24.60
2023-03-19T22:22:49.019Z,25.15
2023-03-19T22:25:16.822Z,25.13
2023-03-19T22:27:44.781Z,23.90
2023-03-19T22:30:20.291Z,25.23
2023-03-19T22:32:47.299Z,25.23
2023-03-19T22:35:19.944Z,24.92
2023-03-19T22:40:15.021Z,25.55
2023-03-19T22:42:42.943Z,24.77
2023-03-19T22:45:20.362Z,24.95
2023-03-19T22:47:46.936Z,24.92
2023-03-19T22:50:28.181Z,24.27
2023-03-19T22:52:54.726Z,25.20
2023-03-19T22:55:21.758Z,24.05
2023-03-19T22:57:48.718Z,24.30
2023-03-19T23:00:20.812Z,25.30
2023-03-19T23:02:48.082Z,23.88
2023-03-19T23:05:34.782Z,22.77
2023-03-19T23:08:03.700Z,24.48
2023-03-19T23:10:35.875Z,23.50
2023-03-19T23:13:02.743Z,24.13
2023-03-19T23:15:31.265Z,22.83
2023-03-19T23:17:59.010Z,23.75
2023-03-19T23:20:27.106Z,23.48
2023-03-19T23:22:53.919Z,23.05
2023-03-19T23:25:26.180Z,23.50
2023-03-19T23:27:59.748Z,26.52
2023-03-19T23:30:29.904Z,26.23
2023-03-19T23:33:00.573Z,24.55
2023-03-19T23:35:28.671Z,24.08
2023-03-19T23:37:56.453Z,23.75
2023-03-19T23:40:25.555Z,23.98
2023-03-19T23:42:53.990Z,23.67
2023-03-19T23:45:29.190Z,23.17
2023-03-19T23:48:00.622Z,24.58
2023-03-19T23:50:27.047Z,23.10
2023-03-19T23:52:53.436Z,23.73
2023-03-19T23:55:19.848Z,21.77
2023-03-19T23:57:46.688Z,21.90
